sensor_id;sensor_type;location;lat;lon;timestamp;pressure;altitude;pressure_sealevel;temperature;humidity
58979;BME280;44763;50.464;30.612;2022-08-04T00:10:04;100275.61;;;19.74;100.00
58979;BME280;44763;50.464;30.612;2022-08-04T00:12:31;100284.27;;;19.73;100.00
58979;BME280;44763;50.464;30.612;2022-08-04T00:15:01;100276.61;;;19.70;100.00
58979;BME280;44763;50.464;30.612;2022-08-04T00:17:39;100268.47;;;19.68;100.00
58979;BME280;44763;50.464;30.612;2022-08-04T00:20:08;100272.75;;;19.63;100.00
58979;BME280;44763;50.464;30.612;2022-08-04T00:22:38;100271.33;;;19.58;100.00
58979;BME280;44763;50.464;30.612;2022-08-04T00:25:07;100271.52;;;19.52;100.00
58979;BME280;44763;50.464;30.612;2022-08-04T00:27:36;100266.84;;;19.47;100.00
58979;BME280;44763;50.464;30.612;2022-08-04T00:30:04;100271.68;;;19.45;100.00
58979;BME280;44763;50.464;30.612;2022-08-04T00:32:32;100268.20;;;19.47;100.00
58979;BME280;44763;50.464;30.612;2022-08-04T00:35:00;100272.59;;;19.53;100.00
58979;BME280;44763;50.464;30.612;2022-08-04T00:37:26;100272.89;;;19.54;100.00
58979;BME280;44763;50.464;30.612;2022-08-04T00:39:53;100279.11;;;19.55;100.00
58979;BME280;44763;50.464;30.612;2022-08-04T00:42:31;100273.19;;;19.55;100.00
58979;BME280;44763;50.464;30.612;2022-08-04T00:57:39;100281.00;;;19.54;100.00
58979;BME280;44763;50.464;30.612;2022-08-04T00:59:47;100283.14;;;19.52;100.00
58979;BME280;44763;50.464;30.612;2022-08-04T01:02:24;100292.82;;;19.48;100.00
58979;BME280;44763;50.464;30.612;2022-08-04T01:05:21;100291.39;;;19.43;100.00
58979;BME280;44763;50.464;30.612;2022-08-04T01:11:40;100290.84;;;19.43;100.00
58979;BME280;44763;50.464;30.612;2022-08-04T01:14:17;100298.69;;;19.42;100.00
58979;BME280;44763;50.464;30.612;2022-08-04T01:16:54;100298.71;;;19.45;100.00
58979;BME280;44763;50.464;30.612;2022-08-04T01:34:22;100305.14;;;19.41;100.00
58979;BME280;44763;50.464;30.612;2022-08-04T01:37:02;100297.36;;;19.45;100.00
58979;BME280;44763;50.464;30.612;2022-08-04T01:39:33;100304.69;;;19.47;100.00
58979;BME280;44763;50.464;30.612;2022-08-04T01:42:10;100301.73;;;19.49;100.00
58979;BME280;44763;50.464;30.612;2022-08-04T01:44:39;100307.14;;;19.49;100.00
58979;BME280;44763;50.464;30.612;2022-08-04T01:47:08;100298.71;;;19.45;100.00
58979;BME280;44763;50.464;30.612;2022-08-04T01:49:37;100300.30;;;19.43;100.00
58979;BME280;44763;50.464;30.612;2022-08-04T01:52:07;100299.25;;;19.44;100.00
58979;BME280;44763;50.464;30.612;2022-08-04T01:54:37;100298.44;;;19.44;100.00
58979;BME280;44763;50.464;30.612;2022-08-04T01:57:05;100296.01;;;19.45;100.00
58979;BME280;44763;50.464;30.612;2022-08-04T01:59:33;100295.77;;;19.47;100.00
58979;BME280;44763;50.464;30.612;2022-08-04T02:02:01;100297.12;;;19.47;100.00
58979;BME280;44763;50.464;30.612;2022-08-04T02:04:27;100299.50;;;19.43;100.00
58979;BME280;44763;50.464;30.612;2022-08-04T02:07:05;100295.92;;;19.40;100.00
58979;BME280;44763;50.464;30.612;2022-08-04T02:09:51;100288.27;;;19.34;100.00
58979;BME280;44763;50.464;30.612;2022-08-04T02:18:24;100294.79;;;19.36;100.00
58979;BME280;44763;50.464;30.612;2022-08-04T02:21:01;100291.03;;;19.37;100.00
58979;BME280;44763;50.464;30.612;2022-08-04T02:23:37;100290.73;;;19.36;100.00
58979;BME280;44763;50.464;30.612;2022-08-04T02:26:19;100288.84;;;19.36;100.00
58979;BME280;44763;50.464;30.612;2022-08-04T02:28:53;100286.41;;;19.35;100.00
58979;BME280;44763;50.464;30.612;2022-08-04T02:31:38;100283.73;;;19.37;100.00
58979;BME280;44763;50.464;30.612;2022-08-04T02:34:25;100288.11;;;19.41;100.00
58979;BME280;44763;50.464;30.612;2022-08-04T02:36:58;100279.14;;;19.38;100.00
58979;BME280;44763;50.464;30.612;2022-08-04T02:39:30;100285.06;;;19.35;100.00
58979;BME280;44763;50.464;30.612;2022-08-04T02:41:57;100283.38;;;19.31;100.00
58979;BME280;44763;50.464;30.612;2022-08-04T02:44:27;100287.11;;;19.28;100.00
58979;BME280;44763;50.464;30.612;2022-08-04T02:46:54;100289.24;;;19.25;100.00
58979;BME280;44763;50.464;30.612;2022-08-04T02:49:22;100287.89;;;19.25;100.00
58979;BME280;44763;50.464;30.612;2022-08-04T02:51:55;100282.25;;;19.27;100.00
58979;BME280;44763;50.464;30.612;2022-08-04T02:54:41;100281.97;;;19.29;100.00
58979;BME280;44763;50.464;30.612;2022-08-04T02:57:10;100280.14;;;19.32;100.00
58979;BME280;44763;50.464;30.612;2022-08-04T03:02:54;100280.47;;;19.35;100.00
58979;BME280;44763;50.464;30.612;2022-08-04T03:11:15;100282.48;;;19.25;100.00
58979;BME280;44763;50.464;30.612;2022-08-04T03:16:39;100278.65;;;19.21;100.00
58979;BME280;44763;50.464;30.612;2022-08-04T03:37:33;100288.90;;;19.39;100.00
58979;BME280;44763;50.464;30.612;2022-08-04T03:52:41;100294.87;;;19.60;100.00
58979;BME280;44763;50.464;30.612;2022-08-04T03:58:51;100300.52;;;19.59;100.00
58979;BME280;44763;50.464;30.612;2022-08-04T04:25:08;100306.22;;;19.77;100.00
58979;BME280;44763;50.464;30.612;2022-08-04T04:30:52;100257.58;;;19.40;100.00
58979;BME280;44763;50.464;30.612;2022-08-04T04:39:00;100311.17;;;19.65;100.00
58979;BME280;44763;50.464;30.612;2022-08-04T04:47:17;100312.03;;;19.69;100.00
58979;BME280;44763;50.464;30.612;2022-08-04T04:50:03;100318.09;;;19.76;100.00
58979;BME280;44763;50.464;30.612;2022-08-04T04:52:47;100313.27;;;19.78;100.00
58979;BME280;44763;50.464;30.612;2022-08-04T04:55:25;100311.08;;;19.77;100.00
58979;BME280;44763;50.464;30.612;2022-08-04T04:58:03;100308.48;;;19.85;100.00
58979;BME280;44763;50.464;30.612;2022-08-04T05:06:44;100310.79;;;19.96;100.00
58979;BME280;44763;50.464;30.612;2022-08-04T05:15:15;100311.28;;;19.93;100.00
58979;BME280;44763;50.464;30.612;2022-08-04T05:17:48;100314.26;;;19.91;100.00
58979;BME280;44763;50.464;30.612;2022-08-04T05:20:33;100315.63;;;19.94;100.00
58979;BME280;44763;50.464;30.612;2022-08-04T05:23:06;100317.88;;;19.99;100.00
58979;BME280;44763;50.464;30.612;2022-08-04T05:28:33;100323.82;;;19.99;100.00
58979;BME280;44763;50.464;30.612;2022-08-04T05:31:28;100318.68;;;20.00;100.00
58979;BME280;44763;50.464;30.612;2022-08-04T05:33:59;100330.36;;;20.03;100.00
58979;BME280;44763;50.464;30.612;2022-08-04T05:36:48;100332.26;;;20.02;100.00
58979;BME280;44763;50.464;30.612;2022-08-04T05:39:32;100332.16;;;19.95;100.00
58979;BME280;44763;50.464;30.612;2022-08-04T05:42:01;100339.41;;;19.92;100.00
58979;BME280;44763;50.464;30.612;2022-08-04T05:44:30;100337.52;;;19.92;100.00
58979;BME280;44763;50.464;30.612;2022-08-04T05:47:00;100340.30;;;19.97;100.00
58979;BME280;44763;50.464;30.612;2022-08-04T05:49:29;100345.24;;;20.03;100.00
58979;BME280;44763;50.464;30.612;2022-08-04T05:51:58;100336.36;;;20.08;100.00
58979;BME280;44763;50.464;30.612;2022-08-04T05:54:27;100343.49;;;20.14;100.00
58979;BME280;44763;50.464;30.612;2022-08-04T05:56:56;100342.14;;;20.14;100.00
58979;BME280;44763;50.464;30.612;2022-08-04T05:59:24;100346.20;;;20.14;100.00
58979;BME280;44763;50.464;30.612;2022-08-04T06:01:55;100341.86;;;20.15;100.00
58979;BME280;44763;50.464;30.612;2022-08-04T06:04:31;100336.52;;;20.20;100.00
58979;BME280;44763;50.464;30.612;2022-08-04T06:07:00;100333.88;;;20.26;100.00
58979;BME280;44763;50.464;30.612;2022-08-04T06:09:30;100340.44;;;20.32;100.00
58979;BME280;44763;50.464;30.612;2022-08-04T06:12:00;100338.91;;;20.39;100.00
58979;BME280;44763;50.464;30.612;2022-08-04T06:14:35;100335.73;;;20.47;100.00
58979;BME280;44763;50.464;30.612;2022-08-04T06:17:05;100338.53;;;20.55;100.00
58979;BME280;44763;50.464;30.612;2022-08-04T06:19:34;100337.31;;;20.63;100.00
58979;BME280;44763;50.464;30.612;2022-08-04T06:22:04;100340.18;;;20.80;100.00
58979;BME280;44763;50.464;30.612;2022-08-04T06:24:35;100334.17;;;21.06;100.00
58979;BME280;44763;50.464;30.612;2022-08-04T06:27:04;100337.09;;;21.29;98.33
58979;BME280;44763;50.464;30.612;2022-08-04T06:29:31;100334.18;;;21.41;96.49
58979;BME280;44763;50.464;30.612;2022-08-04T06:32:03;100340.19;;;21.45;96.06
58979;BME280;44763;50.464;30.612;2022-08-04T06:36:21;100350.44;;;21.38;95.44
58979;BME280;44763;50.464;30.612;2022-08-04T06:38:48;100345.72;;;21.23;96.13
58979;BME280;44763;50.464;30.612;2022-08-04T06:41:15;100346.47;;;21.16;96.67
58979;BME280;44763;50.464;30.612;2022-08-04T06:43:42;100345.66;;;21.15;96.83
58979;BME280;44763;50.464;30.612;2022-08-04T06:46:10;100346.72;;;21.14;96.80
58979;BME280;44763;50.464;30.612;2022-08-04T06:48:37;100343.46;;;21.15;96.58
58979;BME280;44763;50.464;30.612;2022-08-04T06:51:06;100344.31;;;21.18;96.71
58979;BME280;44763;50.464;30.612;2022-08-04T06:53:33;100338.90;;;21.20;96.33
58979;BME280;44763;50.464;30.612;2022-08-04T06:56:00;100336.23;;;21.23;96.64
58979;BME280;44763;50.464;30.612;2022-08-04T06:58:29;100336.53;;;21.27;96.41
58979;BME280;44763;50.464;30.612;2022-08-04T07:00:58;100341.16;;;21.31;95.62
58979;BME280;44763;50.464;30.612;2022-08-04T07:03:27;100337.39;;;21.32;95.57
58979;BME280;44763;50.464;30.612;2022-08-04T07:05:55;100336.28;;;21.31;95.74
58979;BME280;44763;50.464;30.612;2022-08-04T07:08:22;100319.52;;;21.36;95.66
58979;BME280;44763;50.464;30.612;2022-08-04T07:10:49;100327.99;;;21.45;94.62
58979;BME280;44763;50.464;30.612;2022-08-04T07:13:19;100323.71;;;21.52;94.29
58979;BME280;44763;50.464;30.612;2022-08-04T07:15:46;100326.47;;;21.60;94.52
58979;BME280;44763;50.464;30.612;2022-08-04T07:18:14;100328.72;;;21.73;93.56
58979;BME280;44763;50.464;30.612;2022-08-04T07:20:42;100328.23;;;21.84;92.52
58979;BME280;44763;50.464;30.612;2022-08-04T07:23:11;100330.70;;;21.88;91.60
58979;BME280;44763;50.464;30.612;2022-08-04T07:25:40;100329.08;;;21.89;91.34
58979;BME280;44763;50.464;30.612;2022-08-04T07:28:08;100329.05;;;21.87;91.74
58979;BME280;44763;50.464;30.612;2022-08-04T07:30:35;100322.52;;;21.80;91.91
58979;BME280;44763;50.464;30.612;2022-08-04T07:33:04;100333.95;;;21.87;91.53
58979;BME280;44763;50.464;30.612;2022-08-04T07:35:32;100331.83;;;21.94;91.21
58979;BME280;44763;50.464;30.612;2022-08-04T07:37:59;100330.77;;;22.01;89.97
58979;BME280;44763;50.464;30.612;2022-08-04T07:40:25;100332.15;;;22.06;89.47
58979;BME280;44763;50.464;30.612;2022-08-04T07:42:51;100329.95;;;22.05;89.29
58979;BME280;44763;50.464;30.612;2022-08-04T07:45:19;100331.05;;;22.04;88.99
58979;BME280;44763;50.464;30.612;2022-08-04T07:47:47;100325.08;;;22.05;89.26
58979;BME280;44763;50.464;30.612;2022-08-04T07:50:14;100323.20;;;22.13;89.51
58979;BME280;44763;50.464;30.612;2022-08-04T07:52:41;100325.68;;;22.22;88.91
58979;BME280;44763;50.464;30.612;2022-08-04T07:55:08;100331.19;;;22.35;88.83
58979;BME280;44763;50.464;30.612;2022-08-04T07:57:36;100333.38;;;22.43;86.73
58979;BME280;44763;50.464;30.612;2022-08-04T08:00:06;100321.98;;;22.46;86.95
58979;BME280;44763;50.464;30.612;2022-08-04T08:02:36;100329.32;;;22.48;87.40
58979;BME280;44763;50.464;30.612;2022-08-04T08:05:03;100330.95;;;22.54;86.87
58979;BME280;44763;50.464;30.612;2022-08-04T08:07:30;100329.36;;;22.59;86.75
58979;BME280;44763;50.464;30.612;2022-08-04T08:09:56;100330.42;;;22.60;86.18
58979;BME280;44763;50.464;30.612;2022-08-04T08:12:23;100335.86;;;22.60;86.08
58979;BME280;44763;50.464;30.612;2022-08-04T08:14:51;100335.05;;;22.60;86.15
58979;BME280;44763;50.464;30.612;2022-08-04T08:17:17;100328.83;;;22.64;86.17
58979;BME280;44763;50.464;30.612;2022-08-04T08:19:43;100331.80;;;22.65;84.18
58979;BME280;44763;50.464;30.612;2022-08-04T08:22:10;100325.81;;;22.53;84.23
58979;BME280;44763;50.464;30.612;2022-08-04T08:24:38;100330.70;;;22.56;85.07
58979;BME280;44763;50.464;30.612;2022-08-04T08:27:06;100326.38;;;22.63;85.46
58979;BME280;44763;50.464;30.612;2022-08-04T08:29:33;100326.64;;;22.71;85.15
58979;BME280;44763;50.464;30.612;2022-08-04T08:32:02;100333.20;;;22.76;83.57
58979;BME280;44763;50.464;30.612;2022-08-04T08:34:31;100335.91;;;22.76;83.00
58979;BME280;44763;50.464;30.612;2022-08-04T08:37:17;100336.45;;;22.70;82.28
58979;BME280;44763;50.464;30.612;2022-08-04T08:46:12;100322.33;;;22.83;80.86
58979;BME280;44763;50.464;30.612;2022-08-04T08:51:47;100319.34;;;23.44;76.48
58979;BME280;44763;50.464;30.612;2022-08-04T08:54:28;100317.14;;;23.59;75.76
58979;BME280;44763;50.464;30.612;2022-08-04T09:06:08;100322.20;;;24.04;71.42
58979;BME280;44763;50.464;30.612;2022-08-04T09:11:42;100316.67;;;24.24;70.50
58979;BME280;44763;50.464;30.612;2022-08-04T09:14:16;100304.11;;;24.26;72.82
58979;BME280;44763;50.464;30.612;2022-08-04T09:16:46;100310.63;;;24.33;74.92
58979;BME280;44763;50.464;30.612;2022-08-04T09:19:20;100310.86;;;24.41;75.20
58979;BME280;44763;50.464;30.612;2022-08-04T09:22:00;100310.00;;;24.46;75.89
58979;BME280;44763;50.464;30.612;2022-08-04T09:24:58;100308.67;;;24.43;75.59
58979;BME280;44763;50.464;30.612;2022-08-04T09:27:33;100313.33;;;24.38;75.38
58979;BME280;44763;50.464;30.612;2022-08-04T09:30:21;100310.91;;;24.34;75.20
58979;BME280;44763;50.464;30.612;2022-08-04T09:38:18;100310.55;;;24.43;75.98
58979;BME280;44763;50.464;30.612;2022-08-04T09:43:57;100312.83;;;24.78;74.44
58979;BME280;44763;50.464;30.612;2022-08-04T09:46:48;100311.13;;;24.87;72.93
58979;BME280;44763;50.464;30.612;2022-08-04T09:49:22;100313.81;;;24.90;72.41
58979;BME280;44763;50.464;30.612;2022-08-04T10:00:07;100319.72;;;24.65;72.64
58979;BME280;44763;50.464;30.612;2022-08-04T10:02:44;100320.00;;;24.63;72.72
58979;BME280;44763;50.464;30.612;2022-08-04T10:05:41;100310.46;;;24.66;73.10
58979;BME280;44763;50.464;30.612;2022-08-04T10:11:20;100305.52;;;24.71;72.63
58979;BME280;44763;50.464;30.612;2022-08-04T10:19:27;100306.72;;;24.91;72.22
58979;BME280;44763;50.464;30.612;2022-08-04T10:22:26;100299.03;;;24.96;71.86
58979;BME280;44763;50.464;30.612;2022-08-04T10:25:16;100303.09;;;25.01;71.75
58979;BME280;44763;50.464;30.612;2022-08-04T10:27:53;100294.35;;;25.04;71.86
58979;BME280;44763;50.464;30.612;2022-08-04T10:30:21;100294.56;;;25.10;71.26
58979;BME280;44763;50.464;30.612;2022-08-04T10:33:10;100291.23;;;25.16;71.03
58979;BME280;44763;50.464;30.612;2022-08-04T10:36:02;100289.27;;;25.21;71.06
58979;BME280;44763;50.464;30.612;2022-08-04T10:38:36;100281.85;;;25.30;70.43
58979;BME280;44763;50.464;30.612;2022-08-04T10:41:17;100282.33;;;25.39;70.08
58979;BME280;44763;50.464;30.612;2022-08-04T10:49:12;100285.50;;;25.73;68.43
58979;BME280;44763;50.464;30.612;2022-08-04T10:54:36;100278.25;;;25.85;67.95
58979;BME280;44763;50.464;30.612;2022-08-04T10:57:34;100277.90;;;25.94;67.94
58979;BME280;44763;50.464;30.612;2022-08-04T11:00:17;100273.47;;;25.98;66.68
58979;BME280;44763;50.464;30.612;2022-08-04T11:08:24;100275.29;;;25.81;69.39
58979;BME280;44763;50.464;30.612;2022-08-04T11:11:11;100277.78;;;25.56;70.60
58979;BME280;44763;50.464;30.612;2022-08-04T11:14:09;100276.44;;;25.27;73.75
58979;BME280;44763;50.464;30.612;2022-08-04T11:16:51;100277.47;;;24.99;75.22
58979;BME280;44763;50.464;30.612;2022-08-04T11:19:32;100275.50;;;24.76;76.96
58979;BME280;44763;50.464;30.612;2022-08-04T11:28:13;100279.67;;;24.63;77.57
58979;BME280;44763;50.464;30.612;2022-08-04T11:31:07;100273.61;;;24.74;76.15
58979;BME280;44763;50.464;30.612;2022-08-04T11:36:35;100266.45;;;24.80;75.62
58979;BME280;44763;50.464;30.612;2022-08-04T11:39:34;100269.49;;;24.76;72.74
58979;BME280;44763;50.464;30.612;2022-08-04T11:42:22;100264.59;;;24.73;71.97
58979;BME280;44763;50.464;30.612;2022-08-04T11:45:02;100260.51;;;24.76;71.19
58979;BME280;44763;50.464;30.612;2022-08-04T11:47:49;100259.05;;;24.86;69.84
58979;BME280;44763;50.464;30.612;2022-08-04T11:50:34;100249.68;;;24.97;68.33
58979;BME280;44763;50.464;30.612;2022-08-04T11:53:04;100252.81;;;25.15;70.22
58979;BME280;44763;50.464;30.612;2022-08-04T11:55:32;100244.26;;;25.27;71.05
58979;BME280;44763;50.464;30.612;2022-08-04T11:58:00;100245.49;;;25.39;70.02
58979;BME280;44763;50.464;30.612;2022-08-04T12:00:28;100238.30;;;25.49;69.99
58979;BME280;44763;50.464;30.612;2022-08-04T12:18:06;100255.66;;;25.79;69.40
58979;BME280;44763;50.464;30.612;2022-08-04T12:20:54;100253.37;;;25.65;69.39
58979;BME280;44763;50.464;30.612;2022-08-04T12:23:35;100241.88;;;25.44;72.20
58979;BME280;44763;50.464;30.612;2022-08-04T12:26:09;100245.64;;;25.21;71.52
58979;BME280;44763;50.464;30.612;2022-08-04T12:28:42;100247.47;;;25.02;72.85
58979;BME280;44763;50.464;30.612;2022-08-04T12:31:18;100239.72;;;24.85;75.19
58979;BME280;44763;50.464;30.612;2022-08-04T12:33:54;100242.64;;;24.59;75.24
58979;BME280;44763;50.464;30.612;2022-08-04T12:37:01;100242.48;;;24.40;77.40
58979;BME280;44763;50.464;30.612;2022-08-04T12:39:30;100240.67;;;24.25;78.33
58979;BME280;44763;50.464;30.612;2022-08-04T12:42:16;100238.27;;;24.16;79.98
58979;BME280;44763;50.464;30.612;2022-08-04T12:44:46;100238.80;;;24.18;80.09
58979;BME280;44763;50.464;30.612;2022-08-04T12:47:24;100235.50;;;24.26;80.08
58979;BME280;44763;50.464;30.612;2022-08-04T12:49:53;100221.24;;;24.37;79.27
58979;BME280;44763;50.464;30.612;2022-08-04T12:52:21;100227.44;;;24.53;78.76
58979;BME280;44763;50.464;30.612;2022-08-04T12:54:52;100219.70;;;24.65;78.42
58979;BME280;44763;50.464;30.612;2022-08-04T12:57:20;100222.59;;;24.77;77.73
58979;BME280;44763;50.464;30.612;2022-08-04T12:59:49;100226.61;;;24.87;74.49
58979;BME280;44763;50.464;30.612;2022-08-04T13:02:22;100236.36;;;24.93;73.73
58979;BME280;44763;50.464;30.612;2022-08-04T13:04:50;100235.52;;;24.95;70.32
58979;BME280;44763;50.464;30.612;2022-08-04T13:07:22;100240.20;;;24.92;70.25
58979;BME280;44763;50.464;30.612;2022-08-04T13:09:50;100235.59;;;24.87;70.41
58979;BME280;44763;50.464;30.612;2022-08-04T13:12:22;100241.64;;;24.82;70.32
58979;BME280;44763;50.464;30.612;2022-08-04T13:14:51;100242.20;;;24.79;69.75
58979;BME280;44763;50.464;30.612;2022-08-04T13:17:20;100247.41;;;24.78;70.97
58979;BME280;44763;50.464;30.612;2022-08-04T13:19:48;100247.44;;;24.75;71.38
58979;BME280;44763;50.464;30.612;2022-08-04T13:22:26;100247.97;;;24.75;71.58
58979;BME280;44763;50.464;30.612;2022-08-04T13:24:56;100249.39;;;24.70;71.44
58979;BME280;44763;50.464;30.612;2022-08-04T13:27:24;100253.48;;;24.70;71.20
58979;BME280;44763;50.464;30.612;2022-08-04T13:29:54;100250.97;;;24.76;70.32
58979;BME280;44763;50.464;30.612;2022-08-04T13:32:24;100249.30;;;24.80;69.92
58979;BME280;44763;50.464;30.612;2022-08-04T13:34:53;100253.63;;;24.83;70.16
58979;BME280;44763;50.464;30.612;2022-08-04T13:37:23;100250.84;;;24.91;70.54
58979;BME280;44763;50.464;30.612;2022-08-04T13:39:51;100239.89;;;24.94;71.38
58979;BME280;44763;50.464;30.612;2022-08-04T13:42:18;100248.59;;;24.96;72.24
58979;BME280;44763;50.464;30.612;2022-08-04T13:44:47;100241.78;;;24.98;72.86
58979;BME280;44763;50.464;30.612;2022-08-04T13:47:19;100239.30;;;24.99;71.83
58979;BME280;44763;50.464;30.612;2022-08-04T13:52:50;100235.48;;;25.00;72.32
58979;BME280;44763;50.464;30.612;2022-08-04T13:55:26;100237.41;;;25.00;72.51
58979;BME280;44763;50.464;30.612;2022-08-04T13:58:04;100245.83;;;25.03;72.76
58979;BME280;44763;50.464;30.612;2022-08-04T14:00:41;100241.42;;;25.08;71.91
58979;BME280;44763;50.464;30.612;2022-08-04T14:03:17;100244.63;;;25.15;71.83
58979;BME280;44763;50.464;30.612;2022-08-04T14:05:43;100241.54;;;25.24;70.64
58979;BME280;44763;50.464;30.612;2022-08-04T14:08:23;100247.51;;;25.29;68.11
58979;BME280;44763;50.464;30.612;2022-08-04T14:10:55;100238.77;;;25.29;68.50
58979;BME280;44763;50.464;30.612;2022-08-04T14:13:31;100225.97;;;25.27;67.69
58979;BME280;44763;50.464;30.612;2022-08-04T14:15:59;100228.45;;;25.26;67.96
58979;BME280;44763;50.464;30.612;2022-08-04T14:18:28;100226.77;;;25.28;68.50
58979;BME280;44763;50.464;30.612;2022-08-04T14:21:16;100213.65;;;25.32;68.49
58979;BME280;44763;50.464;30.612;2022-08-04T14:26:25;100217.89;;;25.41;68.62
58979;BME280;44763;50.464;30.612;2022-08-04T14:29:11;100215.48;;;25.37;68.75
58979;BME280;44763;50.464;30.612;2022-08-04T14:31:39;100214.17;;;25.34;67.86
58979;BME280;44763;50.464;30.612;2022-08-04T14:34:06;100210.31;;;25.35;67.70
58979;BME280;44763;50.464;30.612;2022-08-04T14:36:40;100218.73;;;25.41;65.46
58979;BME280;44763;50.464;30.612;2022-08-04T14:39:09;100208.06;;;25.42;62.83
58979;BME280;44763;50.464;30.612;2022-08-04T14:41:47;100209.98;;;25.42;63.67
58979;BME280;44763;50.464;30.612;2022-08-04T14:44:14;100210.03;;;25.39;65.83
58979;BME280;44763;50.464;30.612;2022-08-04T14:46:52;100205.47;;;25.30;67.58
58979;BME280;44763;50.464;30.612;2022-08-04T14:49:20;100217.36;;;25.12;71.65
58979;BME280;44763;50.464;30.612;2022-08-04T14:51:53;100228.58;;;24.79;75.63
58979;BME280;44763;50.464;30.612;2022-08-04T14:54:31;100238.24;;;24.21;80.14
58979;BME280;44763;50.464;30.612;2022-08-04T14:57:02;100234.80;;;23.22;83.57
58979;BME280;44763;50.464;30.612;2022-08-04T14:59:44;100226.13;;;22.38;85.79
58979;BME280;44763;50.464;30.612;2022-08-04T15:02:15;100229.50;;;21.90;89.91
58979;BME280;44763;50.464;30.612;2022-08-04T15:04:44;100228.00;;;21.54;94.67
58979;BME280;44763;50.464;30.612;2022-08-04T15:07:11;100237.34;;;21.33;99.11
58979;BME280;44763;50.464;30.612;2022-08-04T15:09:37;100240.77;;;21.18;100.00
58979;BME280;44763;50.464;30.612;2022-08-04T15:12:05;100239.61;;;21.07;100.00
58979;BME280;44763;50.464;30.612;2022-08-04T15:14:31;100246.64;;;21.03;100.00
58979;BME280;44763;50.464;30.612;2022-08-04T15:16:58;100245.83;;;21.02;100.00
58979;BME280;44763;50.464;30.612;2022-08-04T15:19:24;100243.39;;;21.06;100.00
58979;BME280;44763;50.464;30.612;2022-08-04T15:21:51;100248.30;;;21.09;100.00
58979;BME280;44763;50.464;30.612;2022-08-04T15:24:17;100245.89;;;21.15;100.00
58979;BME280;44763;50.464;30.612;2022-08-04T15:26:49;100239.16;;;21.17;100.00
58979;BME280;44763;50.464;30.612;2022-08-04T15:29:42;100197.78;;;20.92;100.00
58979;BME280;44763;50.464;30.612;2022-08-04T15:32:08;100241.66;;;21.27;100.00
58979;BME280;44763;50.464;30.612;2022-08-04T15:34:47;100249.23;;;21.27;100.00
58979;BME280;44763;50.464;30.612;2022-08-04T15:37:31;100249.23;;;21.27;100.00
58979;BME280;44763;50.464;30.612;2022-08-04T15:40:27;100246.79;;;21.28;100.00
58979;BME280;44763;50.464;30.612;2022-08-04T15:49:21;100239.96;;;21.18;100.00
58979;BME280;44763;50.464;30.612;2022-08-04T15:51:59;100231.28;;;21.16;100.00
58979;BME280;44763;50.464;30.612;2022-08-04T15:54:30;100235.34;;;21.18;100.00
58979;BME280;44763;50.464;30.612;2022-08-04T15:56:57;100239.96;;;21.18;100.00
58979;BME280;44763;50.464;30.612;2022-08-04T16:02:34;100239.16;;;21.23;100.00
58979;BME280;44763;50.464;30.612;2022-08-04T16:07:57;100241.31;;;21.15;100.00
58979;BME280;44763;50.464;30.612;2022-08-04T16:13:16;100253.97;;;21.05;100.00
58979;BME280;44763;50.464;30.612;2022-08-04T16:15:54;100255.52;;;20.95;100.00
58979;BME280;44763;50.464;30.612;2022-08-04T16:21:16;100261.98;;;20.89;100.00
58979;BME280;44763;50.464;30.612;2022-08-04T16:26:49;100268.75;;;20.89;100.00
58979;BME280;44763;50.464;30.612;2022-08-04T16:29:25;100263.85;;;20.89;100.00
58979;BME280;44763;50.464;30.612;2022-08-04T16:32:10;100266.56;;;20.89;100.00
58979;BME280;44763;50.464;30.612;2022-08-04T16:37:33;100261.36;;;20.79;100.00
58979;BME280;44763;50.464;30.612;2022-08-04T16:43:12;100253.15;;;20.72;100.00
58979;BME280;44763;50.464;30.612;2022-08-04T16:45:51;100251.52;;;20.68;100.00
58979;BME280;44763;50.464;30.612;2022-08-04T16:48:24;100250.68;;;20.68;100.00
58979;BME280;44763;50.464;30.612;2022-08-04T16:50:55;100249.88;;;20.70;100.00
58979;BME280;44763;50.464;30.612;2022-08-04T16:53:32;100250.72;;;20.70;100.00
58979;BME280;44763;50.464;30.612;2022-08-04T16:56:01;100246.37;;;20.69;100.00
58979;BME280;44763;50.464;30.612;2022-08-04T16:58:30;100252.34;;;20.71;100.00
58979;BME280;44763;50.464;30.612;2022-08-04T17:01:10;100251.78;;;20.69;100.00
58979;BME280;44763;50.464;30.612;2022-08-04T17:03:40;100248.27;;;20.69;100.00
58979;BME280;44763;50.464;30.612;2022-08-04T17:06:09;100250.41;;;20.67;100.00
58979;BME280;44763;50.464;30.612;2022-08-04T17:08:38;100249.31;;;20.65;100.00
58979;BME280;44763;50.464;30.612;2022-08-04T17:11:07;100254.73;;;20.65;100.00
58979;BME280;44763;50.464;30.612;2022-08-04T17:13:39;100264.77;;;20.67;100.00
58979;BME280;44763;50.464;30.612;2022-08-04T17:16:09;100266.12;;;20.67;100.00
58979;BME280;44763;50.464;30.612;2022-08-04T17:18:41;100260.70;;;20.67;100.00
58979;BME280;44763;50.464;30.612;2022-08-04T17:21:15;100261.77;;;20.66;100.00
58979;BME280;44763;50.464;30.612;2022-08-04T17:23:49;100247.96;;;20.65;100.00
58979;BME280;44763;50.464;30.612;2022-08-04T17:26:21;100250.67;;;20.65;100.00
58979;BME280;44763;50.464;30.612;2022-08-04T17:28:51;100254.23;;;20.68;100.00
58979;BME280;44763;50.464;30.612;2022-08-04T17:31:22;100257.76;;;20.71;100.00